sensor_id;sensor_type;location;lat;lon;timestamp;temperature;humidity
14006;DHT22;7078;51.542;7.314;2023-05-24T00:00:29;8.20;99.90
14006;DHT22;7078;51.542;7.314;2023-05-24T00:02:55;8.30;99.90
14006;DHT22;7078;51.542;7.314;2023-05-24T00:05:22;8.20;99.90
14006;DHT22;7078;51.542;7.314;2023-05-24T00:07:48;8.20;99.90
14006;DHT22;7078;51.542;7.314;2023-05-24T00:10:13;8.20;99.90
14006;DHT22;7078;51.542;7.314;2023-05-24T00:12:39;8.10;99.90
14006;DHT22;7078;51.542;7.314;2023-05-24T00:15:05;8.30;99.90
14006;DHT22;7078;51.542;7.314;2023-05-24T00:17:31;8.10;99.90
14006;DHT22;7078;51.542;7.314;2023-05-24T00:19:59;8.10;99.90
14006;DHT22;7078;51.542;7.314;2023-05-24T00:22:24;8.10;99.90
14006;DHT22;7078;51.542;7.314;2023-05-24T00:24:50;8.10;99.90
14006;DHT22;7078;51.542;7.314;2023-05-24T00:27:16;8.00;99.90
14006;DHT22;7078;51.542;7.314;2023-05-24T00:29:41;8.00;99.90
14006;DHT22;7078;51.542;7.314;2023-05-24T00:32:07;8.00;99.90
14006;DHT22;7078;51.542;7.314;2023-05-24T00:34:33;7.90;99.90
14006;DHT22;7078;51.542;7.314;2023-05-24T00:36:58;7.90;99.90
14006;DHT22;7078;51.542;7.314;2023-05-24T00:39:25;7.90;99.90
14006;DHT22;7078;51.542;7.314;2023-05-24T00:41:50;7.80;99.90
14006;DHT22;7078;51.542;7.314;2023-05-24T00:44:16;7.80;99.90
14006;DHT22;7078;51.542;7.314;2023-05-24T00:46:42;7.70;99.90
14006;DHT22;7078;51.542;7.314;2023-05-24T00:49:08;7.70;99.90
14006;DHT22;7078;51.542;7.314;2023-05-24T00:51:34;7.70;99.90
14006;DHT22;7078;51.542;7.314;2023-05-24T00:54:01;7.60;99.90
14006;DHT22;7078;51.542;7.314;2023-05-24T00:56:27;7.60;99.90
14006;DHT22;7078;51.542;7.314;2023-05-24T00:58:53;7.60;99.90
14006;DHT22;7078;51.542;7.314;2023-05-24T01:01:22;7.50;99.90
14006;DHT22;7078;51.542;7.314;2023-05-24T01:03:51;7.40;99.90
14006;DHT22;7078;51.542;7.314;2023-05-24T01:06:18;7.40;99.90
14006;DHT22;7078;51.542;7.314;2023-05-24T01:09:08;7.30;99.90
14006;DHT22;7078;51.542;7.314;2023-05-24T01:14:30;7.20;99.90
14006;DHT22;7078;51.542;7.314;2023-05-24T01:17:08;7.10;99.90
14006;DHT22;7078;51.542;7.314;2023-05-24T01:25:45;7.00;99.90
14006;DHT22;7078;51.542;7.314;2023-05-24T01:28:13;7.00;99.90
14006;DHT22;7078;51.542;7.314;2023-05-24T01:30:41;6.90;99.90
14006;DHT22;7078;51.542;7.314;2023-05-24T01:33:07;6.90;99.90
14006;DHT22;7078;51.542;7.314;2023-05-24T01:35:33;6.90;99.90
14006;DHT22;7078;51.542;7.314;2023-05-24T01:38:04;6.90;99.90
14006;DHT22;7078;51.542;7.314;2023-05-24T01:40:30;6.90;99.90
14006;DHT22;7078;51.542;7.314;2023-05-24T01:43:04;6.90;99.90
14006;DHT22;7078;51.542;7.314;2023-05-24T01:48:37;6.90;99.90
14006;DHT22;7078;51.542;7.314;2023-05-24T01:51:08;6.90;99.90
14006;DHT22;7078;51.542;7.314;2023-05-24T01:53:41;6.80;99.90
14006;DHT22;7078;51.542;7.314;2023-05-24T01:56:10;6.80;99.90
14006;DHT22;7078;51.542;7.314;2023-05-24T01:58:40;6.80;99.90
14006;DHT22;7078;51.542;7.314;2023-05-24T02:01:08;6.80;99.90
14006;DHT22;7078;51.542;7.314;2023-05-24T02:03:35;6.80;99.90
14006;DHT22;7078;51.542;7.314;2023-05-24T02:06:02;6.70;99.90
14006;DHT22;7078;51.542;7.314;2023-05-24T02:08:28;6.70;99.90
14006;DHT22;7078;51.542;7.314;2023-05-24T02:10:54;6.60;99.90
14006;DHT22;7078;51.542;7.314;2023-05-24T02:13:19;6.60;99.90
14006;DHT22;7078;51.542;7.314;2023-05-24T02:15:45;6.50;99.90
14006;DHT22;7078;51.542;7.314;2023-05-24T02:18:12;6.50;99.90
14006;DHT22;7078;51.542;7.314;2023-05-24T02:20:38;6.50;99.90
14006;DHT22;7078;51.542;7.314;2023-05-24T02:23:04;6.50;99.90
14006;DHT22;7078;51.542;7.314;2023-05-24T02:25:30;6.40;99.90
14006;DHT22;7078;51.542;7.314;2023-05-24T02:27:57;6.40;99.90
14006;DHT22;7078;51.542;7.314;2023-05-24T02:30:22;6.40;99.90
14006;DHT22;7078;51.542;7.314;2023-05-24T02:32:48;6.40;99.90
14006;DHT22;7078;51.542;7.314;2023-05-24T02:35:14;6.30;99.90
14006;DHT22;7078;51.542;7.314;2023-05-24T02:37:39;6.30;99.90
14006;DHT22;7078;51.542;7.314;2023-05-24T02:40:05;6.30;99.90
14006;DHT22;7078;51.542;7.314;2023-05-24T02:42:31;6.20;99.90
14006;DHT22;7078;51.542;7.314;2023-05-24T02:44:56;6.20;99.90
14006;DHT22;7078;51.542;7.314;2023-05-24T02:47:22;6.10;99.90
14006;DHT22;7078;51.542;7.314;2023-05-24T02:49:48;6.10;99.90
14006;DHT22;7078;51.542;7.314;2023-05-24T02:52:13;6.10;99.90
14006;DHT22;7078;51.542;7.314;2023-05-24T02:54:40;6.20;99.90
14006;DHT22;7078;51.542;7.314;2023-05-24T02:57:05;6.20;99.90
14006;DHT22;7078;51.542;7.314;2023-05-24T02:59:31;6.10;99.90
14006;DHT22;7078;51.542;7.314;2023-05-24T03:01:58;6.10;99.90
14006;DHT22;7078;51.542;7.314;2023-05-24T03:04:23;6.10;99.90
14006;DHT22;7078;51.542;7.314;2023-05-24T03:06:49;6.10;99.90
14006;DHT22;7078;51.542;7.314;2023-05-24T03:09:14;6.10;99.90
14006;DHT22;7078;51.542;7.314;2023-05-24T03:11:41;6.10;99.90
14006;DHT22;7078;51.542;7.314;2023-05-24T03:14:07;6.10;99.90
14006;DHT22;7078;51.542;7.314;2023-05-24T03:16:35;6.10;99.90
14006;DHT22;7078;51.542;7.314;2023-05-24T03:19:01;6.10;99.90
14006;DHT22;7078;51.542;7.314;2023-05-24T03:21:26;6.10;99.90
14006;DHT22;7078;51.542;7.314;2023-05-24T03:23:52;6.10;99.90
14006;DHT22;7078;51.542;7.314;2023-05-24T03:26:17;6.20;99.90
14006;DHT22;7078;51.542;7.314;2023-05-24T03:28:43;6.20;99.90
14006;DHT22;7078;51.542;7.314;2023-05-24T03:31:09;6.20;99.90
14006;DHT22;7078;51.542;7.314;2023-05-24T03:33:35;6.20;99.90
14006;DHT22;7078;51.542;7.314;2023-05-24T03:36:00;6.20;99.90
14006;DHT22;7078;51.542;7.314;2023-05-24T03:38:28;6.20;99.90
14006;DHT22;7078;51.542;7.314;2023-05-24T03:40:54;6.30;99.90
14006;DHT22;7078;51.542;7.314;2023-05-24T03:43:20;6.30;99.90
14006;DHT22;7078;51.542;7.314;2023-05-24T03:45:46;6.20;99.90
14006;DHT22;7078;51.542;7.314;2023-05-24T03:48:12;6.20;99.90
14006;DHT22;7078;51.542;7.314;2023-05-24T03:50:37;6.20;99.90
14006;DHT22;7078;51.542;7.314;2023-05-24T03:53:03;6.30;99.90
14006;DHT22;7078;51.542;7.314;2023-05-24T03:55:28;6.30;99.90
14006;DHT22;7078;51.542;7.314;2023-05-24T03:57:54;6.40;99.90
14006;DHT22;7078;51.542;7.314;2023-05-24T04:00:20;6.40;99.90
14006;DHT22;7078;51.542;7.314;2023-05-24T04:02:45;6.40;99.90
14006;DHT22;7078;51.542;7.314;2023-05-24T04:05:12;6.50;99.90
14006;DHT22;7078;51.542;7.314;2023-05-24T04:07:38;6.50;99.90
14006;DHT22;7078;51.542;7.314;2023-05-24T04:10:05;6.50;99.90
14006;DHT22;7078;51.542;7.314;2023-05-24T04:12:31;6.60;99.90
14006;DHT22;7078;51.542;7.314;2023-05-24T04:14:58;6.60;99.90
14006;DHT22;7078;51.542;7.314;2023-05-24T04:17:24;6.70;99.90
14006;DHT22;7078;51.542;7.314;2023-05-24T04:19:50;6.70;99.90
14006;DHT22;7078;51.542;7.314;2023-05-24T04:22:16;6.80;99.90
14006;DHT22;7078;51.542;7.314;2023-05-24T04:24:43;6.90;99.90
14006;DHT22;7078;51.542;7.314;2023-05-24T04:27:09;7.00;99.90
14006;DHT22;7078;51.542;7.314;2023-05-24T04:29:34;7.10;99.90
14006;DHT22;7078;51.542;7.314;2023-05-24T04:32:00;7.20;99.90
14006;DHT22;7078;51.542;7.314;2023-05-24T04:34:27;7.30;99.90
14006;DHT22;7078;51.542;7.314;2023-05-24T04:36:54;7.40;99.90
14006;DHT22;7078;51.542;7.314;2023-05-24T04:39:20;7.50;99.90
14006;DHT22;7078;51.542;7.314;2023-05-24T04:41:46;7.50;99.90
14006;DHT22;7078;51.542;7.314;2023-05-24T04:44:15;7.60;99.90
14006;DHT22;7078;51.542;7.314;2023-05-24T04:46:41;7.70;99.90
14006;DHT22;7078;51.542;7.314;2023-05-24T04:49:06;7.70;99.90
14006;DHT22;7078;51.542;7.314;2023-05-24T04:51:33;7.80;99.90
14006;DHT22;7078;51.542;7.314;2023-05-24T04:53:59;7.90;99.90
14006;DHT22;7078;51.542;7.314;2023-05-24T04:56:25;8.00;99.90
14006;DHT22;7078;51.542;7.314;2023-05-24T04:58:51;8.00;99.90
14006;DHT22;7078;51.542;7.314;2023-05-24T05:01:17;8.10;99.90
14006;DHT22;7078;51.542;7.314;2023-05-24T05:03:43;8.20;99.90
14006;DHT22;7078;51.542;7.314;2023-05-24T05:06:10;8.30;99.90
14006;DHT22;7078;51.542;7.314;2023-05-24T05:08:37;8.40;99.90
14006;DHT22;7078;51.542;7.314;2023-05-24T05:11:02;8.50;99.90
14006;DHT22;7078;51.542;7.314;2023-05-24T05:13:28;8.60;99.90
14006;DHT22;7078;51.542;7.314;2023-05-24T05:15:53;8.70;99.90
14006;DHT22;7078;51.542;7.314;2023-05-24T05:18:19;8.90;99.90
14006;DHT22;7078;51.542;7.314;2023-05-24T05:20:44;9.00;99.90
14006;DHT22;7078;51.542;7.314;2023-05-24T05:23:10;9.20;99.90
14006;DHT22;7078;51.542;7.314;2023-05-24T05:25:36;9.30;99.90
14006;DHT22;7078;51.542;7.314;2023-05-24T05:28:01;9.50;99.90
14006;DHT22;7078;51.542;7.314;2023-05-24T05:30:27;9.60;99.90
14006;DHT22;7078;51.542;7.314;2023-05-24T05:32:52;9.70;99.90
14006;DHT22;7078;51.542;7.314;2023-05-24T05:35:18;9.90;99.90
14006;DHT22;7078;51.542;7.314;2023-05-24T05:37:43;9.90;99.90
14006;DHT22;7078;51.542;7.314;2023-05-24T05:40:09;10.00;99.90
14006;DHT22;7078;51.542;7.314;2023-05-24T05:42:35;10.10;99.90
14006;DHT22;7078;51.542;7.314;2023-05-24T05:45:01;10.10;99.90
14006;DHT22;7078;51.542;7.314;2023-05-24T05:47:27;10.30;99.90
14006;DHT22;7078;51.542;7.314;2023-05-24T05:49:52;10.30;99.90
14006;DHT22;7078;51.542;7.314;2023-05-24T05:52:18;10.30;99.90
14006;DHT22;7078;51.542;7.314;2023-05-24T05:54:43;10.40;99.90
14006;DHT22;7078;51.542;7.314;2023-05-24T05:57:09;10.80;99.90
14006;DHT22;7078;51.542;7.314;2023-05-24T05:59:36;11.00;99.90
14006;DHT22;7078;51.542;7.314;2023-05-24T06:02:03;11.10;99.90
14006;DHT22;7078;51.542;7.314;2023-05-24T06:04:30;11.30;99.90
14006;DHT22;7078;51.542;7.314;2023-05-24T06:06:55;11.50;99.90
14006;DHT22;7078;51.542;7.314;2023-05-24T06:09:21;11.60;99.90
14006;DHT22;7078;51.542;7.314;2023-05-24T06:11:46;11.60;99.90
14006;DHT22;7078;51.542;7.314;2023-05-24T06:14:13;11.60;99.90
14006;DHT22;7078;51.542;7.314;2023-05-24T06:16:43;11.60;99.90
14006;DHT22;7078;51.542;7.314;2023-05-24T06:19:13;11.70;99.90
14006;DHT22;7078;51.542;7.314;2023-05-24T06:21:39;11.80;99.90
14006;DHT22;7078;51.542;7.314;2023-05-24T06:24:11;11.70;99.90
14006;DHT22;7078;51.542;7.314;2023-05-24T06:26:37;12.00;99.90
14006;DHT22;7078;51.542;7.314;2023-05-24T06:29:03;11.90;99.90
14006;DHT22;7078;51.542;7.314;2023-05-24T06:31:28;11.90;99.90
14006;DHT22;7078;51.542;7.314;2023-05-24T06:33:54;12.00;99.90
14006;DHT22;7078;51.542;7.314;2023-05-24T06:36:19;11.80;99.90
14006;DHT22;7078;51.542;7.314;2023-05-24T06:38:45;11.80;99.90
14006;DHT22;7078;51.542;7.314;2023-05-24T06:41:10;11.80;99.90
14006;DHT22;7078;51.542;7.314;2023-05-24T06:43:36;11.80;99.90
14006;DHT22;7078;51.542;7.314;2023-05-24T06:46:01;11.90;99.90
14006;DHT22;7078;51.542;7.314;2023-05-24T06:48:28;11.90;99.90
14006;DHT22;7078;51.542;7.314;2023-05-24T06:50:53;12.00;99.90
14006;DHT22;7078;51.542;7.314;2023-05-24T06:53:19;12.00;99.90
14006;DHT22;7078;51.542;7.314;2023-05-24T06:55:44;12.10;99.90
14006;DHT22;7078;51.542;7.314;2023-05-24T06:58:10;12.20;99.90
14006;DHT22;7078;51.542;7.314;2023-05-24T07:00:39;12.30;99.90
14006;DHT22;7078;51.542;7.314;2023-05-24T07:03:05;12.20;99.90
14006;DHT22;7078;51.542;7.314;2023-05-24T07:05:31;12.30;99.90
14006;DHT22;7078;51.542;7.314;2023-05-24T07:07:56;12.40;99.90
14006;DHT22;7078;51.542;7.314;2023-05-24T07:10:22;12.40;99.90
14006;DHT22;7078;51.542;7.314;2023-05-24T07:12:48;12.50;99.90
14006;DHT22;7078;51.542;7.314;2023-05-24T07:15:13;12.30;99.90
14006;DHT22;7078;51.542;7.314;2023-05-24T07:17:39;12.40;99.90
14006;DHT22;7078;51.542;7.314;2023-05-24T07:20:05;12.50;99.90
14006;DHT22;7078;51.542;7.314;2023-05-24T07:22:34;12.60;99.90
14006;DHT22;7078;51.542;7.314;2023-05-24T07:25:00;12.60;99.90
14006;DHT22;7078;51.542;7.314;2023-05-24T07:27:26;12.60;99.90
14006;DHT22;7078;51.542;7.314;2023-05-24T07:29:51;12.70;99.90
14006;DHT22;7078;51.542;7.314;2023-05-24T07:32:17;12.80;99.90
14006;DHT22;7078;51.542;7.314;2023-05-24T07:34:43;13.00;99.90
14006;DHT22;7078;51.542;7.314;2023-05-24T07:37:08;13.10;99.90
14006;DHT22;7078;51.542;7.314;2023-05-24T07:39:34;13.20;99.90
14006;DHT22;7078;51.542;7.314;2023-05-24T07:41:59;13.20;99.90
14006;DHT22;7078;51.542;7.314;2023-05-24T07:44:25;13.40;99.90
14006;DHT22;7078;51.542;7.314;2023-05-24T07:46:51;13.30;99.90
14006;DHT22;7078;51.542;7.314;2023-05-24T07:49:16;13.10;99.90
14006;DHT22;7078;51.542;7.314;2023-05-24T07:51:42;13.10;99.90
14006;DHT22;7078;51.542;7.314;2023-05-24T07:54:08;13.00;99.90
14006;DHT22;7078;51.542;7.314;2023-05-24T07:56:33;13.00;99.90
14006;DHT22;7078;51.542;7.314;2023-05-24T07:58:59;12.70;99.90
14006;DHT22;7078;51.542;7.314;2023-05-24T08:01:32;12.70;99.90
14006;DHT22;7078;51.542;7.314;2023-05-24T08:04:02;12.60;99.90
14006;DHT22;7078;51.542;7.314;2023-05-24T08:06:28;12.60;99.90
14006;DHT22;7078;51.542;7.314;2023-05-24T08:08:54;12.50;99.90
14006;DHT22;7078;51.542;7.314;2023-05-24T08:11:20;12.60;99.90
14006;DHT22;7078;51.542;7.314;2023-05-24T08:13:46;12.60;99.90
14006;DHT22;7078;51.542;7.314;2023-05-24T08:16:12;12.60;99.90
14006;DHT22;7078;51.542;7.314;2023-05-24T08:18:37;12.60;99.90
14006;DHT22;7078;51.542;7.314;2023-05-24T08:21:03;12.60;99.90
14006;DHT22;7078;51.542;7.314;2023-05-24T08:23:29;12.70;99.90
14006;DHT22;7078;51.542;7.314;2023-05-24T08:25:56;12.80;99.90
14006;DHT22;7078;51.542;7.314;2023-05-24T08:28:22;13.00;99.90
14006;DHT22;7078;51.542;7.314;2023-05-24T08:30:47;13.10;99.90
14006;DHT22;7078;51.542;7.314;2023-05-24T08:33:13;13.30;99.90
14006;DHT22;7078;51.542;7.314;2023-05-24T08:35:38;13.40;99.90
14006;DHT22;7078;51.542;7.314;2023-05-24T08:38:05;13.50;99.90
14006;DHT22;7078;51.542;7.314;2023-05-24T08:40:30;13.50;99.90
14006;DHT22;7078;51.542;7.314;2023-05-24T08:42:59;13.70;99.90
14006;DHT22;7078;51.542;7.314;2023-05-24T08:45:29;13.70;99.90
14006;DHT22;7078;51.542;7.314;2023-05-24T08:47:56;13.90;99.90
14006;DHT22;7078;51.542;7.314;2023-05-24T08:50:23;13.90;99.90
14006;DHT22;7078;51.542;7.314;2023-05-24T08:52:50;14.10;99.90
14006;DHT22;7078;51.542;7.314;2023-05-24T08:55:16;14.10;99.90
14006;DHT22;7078;51.542;7.314;2023-05-24T08:57:43;14.40;99.90
14006;DHT22;7078;51.542;7.314;2023-05-24T09:00:10;14.70;99.90
14006;DHT22;7078;51.542;7.314;2023-05-24T09:02:41;14.60;99.90
14006;DHT22;7078;51.542;7.314;2023-05-24T09:05:09;14.70;99.90
14006;DHT22;7078;51.542;7.314;2023-05-24T09:07:36;14.70;99.90
14006;DHT22;7078;51.542;7.314;2023-05-24T09:10:06;14.70;99.90
14006;DHT22;7078;51.542;7.314;2023-05-24T09:12:33;14.50;99.90
14006;DHT22;7078;51.542;7.314;2023-05-24T09:14:59;14.40;99.90
14006;DHT22;7078;51.542;7.314;2023-05-24T09:17:25;14.40;99.90
14006;DHT22;7078;51.542;7.314;2023-05-24T09:19:51;14.30;99.90
14006;DHT22;7078;51.542;7.314;2023-05-24T09:22:21;14.30;99.90
14006;DHT22;7078;51.542;7.314;2023-05-24T09:25:00;14.30;99.90
14006;DHT22;7078;51.542;7.314;2023-05-24T09:27:26;14.20;99.90
14006;DHT22;7078;51.542;7.314;2023-05-24T09:29:51;14.10;99.90
14006;DHT22;7078;51.542;7.314;2023-05-24T09:32:19;14.00;99.90
14006;DHT22;7078;51.542;7.314;2023-05-24T09:34:47;14.00;99.90
14006;DHT22;7078;51.542;7.314;2023-05-24T09:37:15;14.00;99.90
14006;DHT22;7078;51.542;7.314;2023-05-24T09:39:42;14.10;99.90
14006;DHT22;7078;51.542;7.314;2023-05-24T09:42:14;14.10;99.90
14006;DHT22;7078;51.542;7.314;2023-05-24T09:44:40;14.30;99.90
14006;DHT22;7078;51.542;7.314;2023-05-24T09:47:06;14.50;99.90
14006;DHT22;7078;51.542;7.314;2023-05-24T09:49:35;14.70;99.90
14006;DHT22;7078;51.542;7.314;2023-05-24T09:52:01;15.00;99.90
14006;DHT22;7078;51.542;7.314;2023-05-24T09:54:27;15.00;99.90
14006;DHT22;7078;51.542;7.314;2023-05-24T09:56:53;15.00;99.90
14006;DHT22;7078;51.542;7.314;2023-05-24T09:59:19;14.70;99.90
14006;DHT22;7078;51.542;7.314;2023-05-24T10:01:44;14.80;99.90
14006;DHT22;7078;51.542;7.314;2023-05-24T10:04:11;15.00;99.90
14006;DHT22;7078;51.542;7.314;2023-05-24T10:06:39;14.80;99.90
14006;DHT22;7078;51.542;7.314;2023-05-24T10:09:07;15.00;99.90
14006;DHT22;7078;51.542;7.314;2023-05-24T10:11:36;15.20;99.90
14006;DHT22;7078;51.542;7.314;2023-05-24T10:14:04;15.30;99.90
14006;DHT22;7078;51.542;7.314;2023-05-24T10:16:31;15.30;99.90
14006;DHT22;7078;51.542;7.314;2023-05-24T10:18:57;15.50;98.10
14006;DHT22;7078;51.542;7.314;2023-05-24T10:21:23;15.50;91.00
14006;DHT22;7078;51.542;7.314;2023-05-24T10:23:51;15.50;91.10
14006;DHT22;7078;51.542;7.314;2023-05-24T10:26:20;15.40;92.70
14006;DHT22;7078;51.542;7.314;2023-05-24T10:28:53;15.20;95.10
14006;DHT22;7078;51.542;7.314;2023-05-24T10:31:23;15.40;95.00
14006;DHT22;7078;51.542;7.314;2023-05-24T10:33:50;15.40;99.90
14006;DHT22;7078;51.542;7.314;2023-05-24T10:36:16;15.50;95.00
14006;DHT22;7078;51.542;7.314;2023-05-24T10:38:45;15.50;92.00
14006;DHT22;7078;51.542;7.314;2023-05-24T10:41:11;15.70;94.70
14006;DHT22;7078;51.542;7.314;2023-05-24T10:43:37;15.60;99.90
14006;DHT22;7078;51.542;7.314;2023-05-24T10:46:04;15.60;93.70
14006;DHT22;7078;51.542;7.314;2023-05-24T10:48:34;15.60;90.90
14006;DHT22;7078;51.542;7.314;2023-05-24T10:51:28;15.70;90.20
14006;DHT22;7078;51.542;7.314;2023-05-24T10:53:56;15.80;92.20
14006;DHT22;7078;51.542;7.314;2023-05-24T10:56:22;15.80;90.00
14006;DHT22;7078;51.542;7.314;2023-05-24T11:01:31;15.80;89.50
14006;DHT22;7078;51.542;7.314;2023-05-24T11:07:04;15.30;92.30
14006;DHT22;7078;51.542;7.314;2023-05-24T11:09:34;15.00;95.20
14006;DHT22;7078;51.542;7.314;2023-05-24T11:12:01;14.80;96.20
14006;DHT22;7078;51.542;7.314;2023-05-24T11:14:36;14.80;94.30
14006;DHT22;7078;51.542;7.314;2023-05-24T11:17:04;14.40;96.60
14006;DHT22;7078;51.542;7.314;2023-05-24T11:19:32;14.30;99.90
14006;DHT22;7078;51.542;7.314;2023-05-24T11:22:01;14.30;99.90
14006;DHT22;7078;51.542;7.314;2023-05-24T11:24:27;14.10;99.90
14006;DHT22;7078;51.542;7.314;2023-05-24T11:26:53;14.10;99.90
14006;DHT22;7078;51.542;7.314;2023-05-24T11:29:21;14.10;99.90
14006;DHT22;7078;51.542;7.314;2023-05-24T11:31:55;14.10;99.90
14006;DHT22;7078;51.542;7.314;2023-05-24T11:34:28;14.10;99.90
14006;DHT22;7078;51.542;7.314;2023-05-24T11:36:55;14.10;99.90
14006;DHT22;7078;51.542;7.314;2023-05-24T11:39:21;14.20;99.90
14006;DHT22;7078;51.542;7.314;2023-05-24T11:41:48;14.30;99.90
14006;DHT22;7078;51.542;7.314;2023-05-24T11:44:17;14.30;99.90
14006;DHT22;7078;51.542;7.314;2023-05-24T11:46:44;14.30;99.90
14006;DHT22;7078;51.542;7.314;2023-05-24T11:49:14;14.30;99.90
14006;DHT22;7078;51.542;7.314;2023-05-24T11:51:40;14.30;99.90
14006;DHT22;7078;51.542;7.314;2023-05-24T11:54:05;14.30;99.90
14006;DHT22;7078;51.542;7.314;2023-05-24T11:56:31;14.30;99.90
14006;DHT22;7078;51.542;7.314;2023-05-24T11:59:08;14.40;99.90
14006;DHT22;7078;51.542;7.314;2023-05-24T12:01:33;14.40;99.90
14006;DHT22;7078;51.542;7.314;2023-05-24T12:03:59;14.60;99.90
14006;DHT22;7078;51.542;7.314;2023-05-24T12:06:35;14.60;99.90
14006;DHT22;7078;51.542;7.314;2023-05-24T12:09:01;14.80;99.90
14006;DHT22;7078;51.542;7.314;2023-05-24T12:11:30;14.90;99.90
14006;DHT22;7078;51.542;7.314;2023-05-24T12:13:57;15.00;99.90
14006;DHT22;7078;51.542;7.314;2023-05-24T12:16:22;15.20;99.90
14006;DHT22;7078;51.542;7.314;2023-05-24T12:18:50;15.30;99.90
14006;DHT22;7078;51.542;7.314;2023-05-24T12:21:16;15.40;99.90
14006;DHT22;7078;51.542;7.314;2023-05-24T12:23:42;15.40;99.90
14006;DHT22;7078;51.542;7.314;2023-05-24T12:26:08;15.20;99.90
14006;DHT22;7078;51.542;7.314;2023-05-24T12:28:38;15.20;99.90
14006;DHT22;7078;51.542;7.314;2023-05-24T12:31:04;15.20;99.90
14006;DHT22;7078;51.542;7.314;2023-05-24T12:33:30;15.20;99.90
14006;DHT22;7078;51.542;7.314;2023-05-24T12:35:57;15.40;99.90
14006;DHT22;7078;51.542;7.314;2023-05-24T12:38:23;15.40;99.90
14006;DHT22;7078;51.542;7.314;2023-05-24T12:40:53;15.40;99.90
14006;DHT22;7078;51.542;7.314;2023-05-24T12:43:20;15.40;99.90
14006;DHT22;7078;51.542;7.314;2023-05-24T12:45:45;15.30;97.70
14006;DHT22;7078;51.542;7.314;2023-05-24T12:48:11;15.40;98.30
14006;DHT22;7078;51.542;7.314;2023-05-24T12:50:37;15.50;97.30
14006;DHT22;7078;51.542;7.314;2023-05-24T12:53:03;15.60;95.20
14006;DHT22;7078;51.542;7.314;2023-05-24T12:55:29;15.60;93.30
14006;DHT22;7078;51.542;7.314;2023-05-24T12:57:55;15.50;97.90
14006;DHT22;7078;51.542;7.314;2023-05-24T13:00:25;15.40;99.90
14006;DHT22;7078;51.542;7.314;2023-05-24T13:02:57;15.20;97.10
14006;DHT22;7078;51.542;7.314;2023-05-24T13:05:23;15.00;99.90
14006;DHT22;7078;51.542;7.314;2023-05-24T13:07:50;14.80;99.90
14006;DHT22;7078;51.542;7.314;2023-05-24T13:10:16;14.80;99.90
14006;DHT22;7078;51.542;7.314;2023-05-24T13:12:43;14.80;99.90
14006;DHT22;7078;51.542;7.314;2023-05-24T13:15:09;14.70;99.90
14006;DHT22;7078;51.542;7.314;2023-05-24T13:17:35;14.80;99.90
14006;DHT22;7078;51.542;7.314;2023-05-24T13:20:03;15.00;99.90
14006;DHT22;7078;51.542;7.314;2023-05-24T13:22:33;15.40;99.90
14006;DHT22;7078;51.542;7.314;2023-05-24T13:24:59;15.60;99.90
14006;DHT22;7078;51.542;7.314;2023-05-24T13:27:24;15.80;99.90
14006;DHT22;7078;51.542;7.314;2023-05-24T13:29:50;16.00;99.90
14006;DHT22;7078;51.542;7.314;2023-05-24T13:32:17;16.10;97.40
14006;DHT22;7078;51.542;7.314;2023-05-24T13:34:43;16.20;99.90
14006;DHT22;7078;51.542;7.314;2023-05-24T13:37:08;16.20;99.90
14006;DHT22;7078;51.542;7.314;2023-05-24T13:39:36;16.20;99.90
14006;DHT22;7078;51.542;7.314;2023-05-24T13:42:02;16.20;99.70
14006;DHT22;7078;51.542;7.314;2023-05-24T13:44:28;16.00;99.30
14006;DHT22;7078;51.542;7.314;2023-05-24T13:46:55;15.80;99.90
14006;DHT22;7078;51.542;7.314;2023-05-24T13:49:21;15.60;99.90
14006;DHT22;7078;51.542;7.314;2023-05-24T13:51:46;15.30;99.90
14006;DHT22;7078;51.542;7.314;2023-05-24T13:54:12;15.30;99.90
14006;DHT22;7078;51.542;7.314;2023-05-24T13:56:39;15.20;99.90
14006;DHT22;7078;51.542;7.314;2023-05-24T13:59:06;15.20;99.90
14006;DHT22;7078;51.542;7.314;2023-05-24T14:01:33;15.20;99.90
14006;DHT22;7078;51.542;7.314;2023-05-24T14:04:01;15.10;99.90
14006;DHT22;7078;51.542;7.314;2023-05-24T14:06:26;15.20;99.90
14006;DHT22;7078;51.542;7.314;2023-05-24T14:08:52;15.40;99.90
14006;DHT22;7078;51.542;7.314;2023-05-24T14:11:18;15.80;99.90
14006;DHT22;7078;51.542;7.314;2023-05-24T14:13:44;16.10;99.90
14006;DHT22;7078;51.542;7.314;2023-05-24T14:16:10;16.30;98.90
14006;DHT22;7078;51.542;7.314;2023-05-24T14:18:35;16.60;96.60
14006;DHT22;7078;51.542;7.314;2023-05-24T14:21:01;16.70;99.90
14006;DHT22;7078;51.542;7.314;2023-05-24T14:23:27;16.90;99.90
14006;DHT22;7078;51.542;7.314;2023-05-24T14:25:56;16.90;94.50
14006;DHT22;7078;51.542;7.314;2023-05-24T14:28:21;17.00;93.90
14006;DHT22;7078;51.542;7.314;2023-05-24T14:30:47;16.90;95.80
14006;DHT22;7078;51.542;7.314;2023-05-24T14:33:13;17.20;93.10
14006;DHT22;7078;51.542;7.314;2023-05-24T14:35:38;17.40;88.10
14006;DHT22;7078;51.542;7.314;2023-05-24T14:38:05;17.60;92.10
14006;DHT22;7078;51.542;7.314;2023-05-24T14:40:31;17.90;81.90
14006;DHT22;7078;51.542;7.314;2023-05-24T14:42:58;17.90;76.40
14006;DHT22;7078;51.542;7.314;2023-05-24T14:45:24;18.00;83.20
14006;DHT22;7078;51.542;7.314;2023-05-24T14:47:50;18.40;73.80
14006;DHT22;7078;51.542;7.314;2023-05-24T14:50:15;18.50;72.00
14006;DHT22;7078;51.542;7.314;2023-05-24T14:52:41;18.10;82.50
14006;DHT22;7078;51.542;7.314;2023-05-24T14:55:07;17.80;82.10
14006;DHT22;7078;51.542;7.314;2023-05-24T14:57:34;17.60;89.00
14006;DHT22;7078;51.542;7.314;2023-05-24T15:00:00;17.30;90.30
14006;DHT22;7078;51.542;7.314;2023-05-24T15:02:25;17.00;92.20
14006;DHT22;7078;51.542;7.314;2023-05-24T15:04:51;16.90;96.10
14006;DHT22;7078;51.542;7.314;2023-05-24T15:07:17;16.90;93.20
14006;DHT22;7078;51.542;7.314;2023-05-24T15:09:43;17.10;93.30
14006;DHT22;7078;51.542;7.314;2023-05-24T15:12:08;17.40;93.10
14006;DHT22;7078;51.542;7.314;2023-05-24T15:14:34;17.50;94.20
14006;DHT22;7078;51.542;7.314;2023-05-24T15:16:59;18.20;83.00
14006;DHT22;7078;51.542;7.314;2023-05-24T15:19:25;18.70;75.60
14006;DHT22;7078;51.542;7.314;2023-05-24T15:21:50;19.40;71.30
14006;DHT22;7078;51.542;7.314;2023-05-24T15:24:16;20.10;67.60
14006;DHT22;7078;51.542;7.314;2023-05-24T15:26:41;20.60;61.70
14006;DHT22;7078;51.542;7.314;2023-05-24T15:29:07;21.00;58.90
14006;DHT22;7078;51.542;7.314;2023-05-24T15:31:33;21.50;56.90
14006;DHT22;7078;51.542;7.314;2023-05-24T15:33:59;22.30;54.80
14006;DHT22;7078;51.542;7.314;2023-05-24T15:36:24;22.60;51.70
14006;DHT22;7078;51.542;7.314;2023-05-24T15:38:50;22.60;53.10
14006;DHT22;7078;51.542;7.314;2023-05-24T15:41:15;22.20;54.20
14006;DHT22;7078;51.542;7.314;2023-05-24T15:43:41;21.60;53.70
14006;DHT22;7078;51.542;7.314;2023-05-24T15:46:06;21.20;54.60
14006;DHT22;7078;51.542;7.314;2023-05-24T15:48:32;21.30;55.30
14006;DHT22;7078;51.542;7.314;2023-05-24T15:50:57;21.30;54.90
14006;DHT22;7078;51.542;7.314;2023-05-24T15:53:23;20.50;54.60
14006;DHT22;7078;51.542;7.314;2023-05-24T15:55:49;20.00;56.00
14006;DHT22;7078;51.542;7.314;2023-05-24T15:58:15;19.20;59.30
14006;DHT22;7078;51.542;7.314;2023-05-24T16:00:41;18.70;65.10
14006;DHT22;7078;51.542;7.314;2023-05-24T16:03:07;18.30;69.60
14006;DHT22;7078;51.542;7.314;2023-05-24T16:05:32;18.30;74.30